sensor_id;sensor_type;location;lat;lon;timestamp;P1;durP1;ratioP1;P2;durP2;ratioP2
8013;SDS011;4052;50.500;8.660;2022-10-16T00:00:37;0.50;;;0.50;;
8013;SDS011;4052;50.500;8.660;2022-10-16T00:03:03;0.60;;;0.30;;
8013;SDS011;4052;50.500;8.660;2022-10-16T00:05:30;0.23;;;0.23;;
8013;SDS011;4052;50.500;8.660;2022-10-16T00:07:56;0.27;;;0.27;;
8013;SDS011;4052;50.500;8.660;2022-10-16T00:10:22;0.23;;;0.23;;
8013;SDS011;4052;50.500;8.660;2022-10-16T00:12:48;0.77;;;0.40;;
8013;SDS011;4052;50.500;8.660;2022-10-16T00:15:14;0.30;;;0.30;;
8013;SDS011;4052;50.500;8.660;2022-10-16T00:17:40;0.57;;;0.43;;
8013;SDS011;4052;50.500;8.660;2022-10-16T00:20:06;0.40;;;0.40;;
8013;SDS011;4052;50.500;8.660;2022-10-16T00:22:32;0.30;;;0.30;;
8013;SDS011;4052;50.500;8.660;2022-10-16T00:24:59;2.33;;;0.30;;
8013;SDS011;4052;50.500;8.660;2022-10-16T00:27:24;0.40;;;0.40;;
8013;SDS011;4052;50.500;8.660;2022-10-16T00:29:51;0.50;;;0.50;;
8013;SDS011;4052;50.500;8.660;2022-10-16T00:32:20;0.43;;;0.30;;
8013;SDS011;4052;50.500;8.660;2022-10-16T00:34:46;0.33;;;0.20;;
8013;SDS011;4052;50.500;8.660;2022-10-16T00:37:12;0.30;;;0.30;;
8013;SDS011;4052;50.500;8.660;2022-10-16T00:39:38;0.37;;;0.37;;
8013;SDS011;4052;50.500;8.660;2022-10-16T00:42:04;1.23;;;0.47;;
8013;SDS011;4052;50.500;8.660;2022-10-16T00:47:27;0.63;;;0.40;;
8013;SDS011;4052;50.500;8.660;2022-10-16T00:49:58;0.40;;;0.40;;
8013;SDS011;4052;50.500;8.660;2022-10-16T00:52:26;0.40;;;0.40;;
8013;SDS011;4052;50.500;8.660;2022-10-16T00:54:52;0.40;;;0.40;;
8013;SDS011;4052;50.500;8.660;2022-10-16T00:57:19;0.53;;;0.50;;
8013;SDS011;4052;50.500;8.660;2022-10-16T00:59:45;0.40;;;0.40;;
8013;SDS011;4052;50.500;8.660;2022-10-16T01:02:12;0.33;;;0.33;;
8013;SDS011;4052;50.500;8.660;2022-10-16T01:04:40;0.30;;;0.30;;
8013;SDS011;4052;50.500;8.660;2022-10-16T01:15:27;0.50;;;0.50;;
8013;SDS011;4052;50.500;8.660;2022-10-16T01:18:12;0.73;;;0.73;;
8013;SDS011;4052;50.500;8.660;2022-10-16T01:20:42;0.20;;;0.20;;
8013;SDS011;4052;50.500;8.660;2022-10-16T01:23:15;0.27;;;0.27;;
8013;SDS011;4052;50.500;8.660;2022-10-16T01:28:18;0.40;;;0.40;;
8013;SDS011;4052;50.500;8.660;2022-10-16T01:30:47;0.40;;;0.40;;
8013;SDS011;4052;50.500;8.660;2022-10-16T01:33:17;0.43;;;0.43;;
8013;SDS011;4052;50.500;8.660;2022-10-16T01:35:46;0.83;;;0.67;;
8013;SDS011;4052;50.500;8.660;2022-10-16T01:38:17;0.50;;;0.50;;
8013;SDS011;4052;50.500;8.660;2022-10-16T01:40:46;0.40;;;0.40;;
8013;SDS011;4052;50.500;8.660;2022-10-16T01:43:20;0.60;;;0.60;;
8013;SDS011;4052;50.500;8.660;2022-10-16T01:45:48;0.50;;;0.43;;
8013;SDS011;4052;50.500;8.660;2022-10-16T01:48:15;0.60;;;0.60;;
8013;SDS011;4052;50.500;8.660;2022-10-16T01:50:43;0.37;;;0.37;;
8013;SDS011;4052;50.500;8.660;2022-10-16T01:53:11;0.30;;;0.30;;
8013;SDS011;4052;50.500;8.660;2022-10-16T01:55:38;0.50;;;0.50;;
8013;SDS011;4052;50.500;8.660;2022-10-16T01:58:08;0.47;;;0.47;;
8013;SDS011;4052;50.500;8.660;2022-10-16T02:00:36;0.33;;;0.33;;
8013;SDS011;4052;50.500;8.660;2022-10-16T02:03:03;0.50;;;0.50;;
8013;SDS011;4052;50.500;8.660;2022-10-16T02:05:34;0.50;;;0.50;;
8013;SDS011;4052;50.500;8.660;2022-10-16T02:08:02;0.50;;;0.50;;
8013;SDS011;4052;50.500;8.660;2022-10-16T02:10:29;0.43;;;0.43;;
8013;SDS011;4052;50.500;8.660;2022-10-16T02:15:37;4.63;;;0.67;;
8013;SDS011;4052;50.500;8.660;2022-10-16T02:18:04;0.50;;;0.50;;
8013;SDS011;4052;50.500;8.660;2022-10-16T02:20:32;0.50;;;0.50;;
8013;SDS011;4052;50.500;8.660;2022-10-16T02:22:59;0.73;;;0.43;;
8013;SDS011;4052;50.500;8.660;2022-10-16T02:27:57;0.37;;;0.37;;
8013;SDS011;4052;50.500;8.660;2022-10-16T02:30:27;0.40;;;0.40;;
8013;SDS011;4052;50.500;8.660;2022-10-16T02:32:54;3.13;;;0.60;;
8013;SDS011;4052;50.500;8.660;2022-10-16T02:35:21;0.90;;;0.70;;
8013;SDS011;4052;50.500;8.660;2022-10-16T02:37:49;2.23;;;1.00;;
8013;SDS011;4052;50.500;8.660;2022-10-16T02:40:15;0.30;;;0.30;;
8013;SDS011;4052;50.500;8.660;2022-10-16T02:42:42;0.40;;;0.40;;
8013;SDS011;4052;50.500;8.660;2022-10-16T02:45:09;0.40;;;0.40;;
8013;SDS011;4052;50.500;8.660;2022-10-16T02:47:35;0.77;;;0.53;;
8013;SDS011;4052;50.500;8.660;2022-10-16T02:50:02;0.50;;;0.50;;
8013;SDS011;4052;50.500;8.660;2022-10-16T02:52:28;0.30;;;0.30;;
8013;SDS011;4052;50.500;8.660;2022-10-16T02:54:54;0.67;;;0.67;;
8013;SDS011;4052;50.500;8.660;2022-10-16T02:57:20;0.30;;;0.30;;
8013;SDS011;4052;50.500;8.660;2022-10-16T02:59:46;1.77;;;0.90;;
8013;SDS011;4052;50.500;8.660;2022-10-16T03:02:12;0.47;;;0.47;;
8013;SDS011;4052;50.500;8.660;2022-10-16T03:04:38;0.60;;;0.60;;
8013;SDS011;4052;50.500;8.660;2022-10-16T03:07:04;0.40;;;0.40;;
8013;SDS011;4052;50.500;8.660;2022-10-16T03:09:30;0.40;;;0.40;;
8013;SDS011;4052;50.500;8.660;2022-10-16T03:11:56;0.70;;;0.40;;
8013;SDS011;4052;50.500;8.660;2022-10-16T03:14:22;0.53;;;0.53;;
8013;SDS011;4052;50.500;8.660;2022-10-16T03:16:48;0.60;;;0.60;;
8013;SDS011;4052;50.500;8.660;2022-10-16T03:19:15;0.87;;;0.87;;
8013;SDS011;4052;50.500;8.660;2022-10-16T03:21:41;0.57;;;0.57;;
8013;SDS011;4052;50.500;8.660;2022-10-16T03:24:07;0.50;;;0.50;;
8013;SDS011;4052;50.500;8.660;2022-10-16T03:26:33;0.40;;;0.40;;
8013;SDS011;4052;50.500;8.660;2022-10-16T03:28:59;0.50;;;0.50;;
8013;SDS011;4052;50.500;8.660;2022-10-16T03:31:27;0.40;;;0.33;;
8013;SDS011;4052;50.500;8.660;2022-10-16T03:33:53;0.50;;;0.50;;
8013;SDS011;4052;50.500;8.660;2022-10-16T03:36:19;0.40;;;0.40;;
8013;SDS011;4052;50.500;8.660;2022-10-16T03:38:45;0.50;;;0.50;;
8013;SDS011;4052;50.500;8.660;2022-10-16T03:41:11;0.40;;;0.40;;
8013;SDS011;4052;50.500;8.660;2022-10-16T03:43:37;0.60;;;0.47;;
8013;SDS011;4052;50.500;8.660;2022-10-16T03:46:03;0.80;;;0.47;;
8013;SDS011;4052;50.500;8.660;2022-10-16T03:48:29;0.50;;;0.50;;
8013;SDS011;4052;50.500;8.660;2022-10-16T03:50:55;0.80;;;0.80;;
8013;SDS011;4052;50.500;8.660;2022-10-16T03:53:21;0.33;;;0.33;;
8013;SDS011;4052;50.500;8.660;2022-10-16T03:55:47;0.67;;;0.60;;
8013;SDS011;4052;50.500;8.660;2022-10-16T03:58:13;0.30;;;0.30;;
8013;SDS011;4052;50.500;8.660;2022-10-16T04:00:43;0.60;;;0.60;;
8013;SDS011;4052;50.500;8.660;2022-10-16T04:03:09;0.50;;;0.50;;
8013;SDS011;4052;50.500;8.660;2022-10-16T04:05:35;2.10;;;0.70;;
8013;SDS011;4052;50.500;8.660;2022-10-16T04:08:01;0.40;;;0.40;;
8013;SDS011;4052;50.500;8.660;2022-10-16T04:10:27;0.43;;;0.43;;
8013;SDS011;4052;50.500;8.660;2022-10-16T04:12:53;0.50;;;0.50;;
8013;SDS011;4052;50.500;8.660;2022-10-16T04:15:20;0.50;;;0.50;;
8013;SDS011;4052;50.500;8.660;2022-10-16T04:17:46;0.40;;;0.40;;
8013;SDS011;4052;50.500;8.660;2022-10-16T04:20:12;0.70;;;0.70;;
8013;SDS011;4052;50.500;8.660;2022-10-16T04:22:38;0.40;;;0.40;;
8013;SDS011;4052;50.500;8.660;2022-10-16T04:25:04;0.50;;;0.50;;
8013;SDS011;4052;50.500;8.660;2022-10-16T04:27:30;0.40;;;0.40;;
8013;SDS011;4052;50.500;8.660;2022-10-16T04:29:57;0.50;;;0.50;;
8013;SDS011;4052;50.500;8.660;2022-10-16T04:32:23;0.40;;;0.40;;
8013;SDS011;4052;50.500;8.660;2022-10-16T04:34:49;0.50;;;0.50;;
8013;SDS011;4052;50.500;8.660;2022-10-16T04:37:15;2.27;;;0.77;;
8013;SDS011;4052;50.500;8.660;2022-10-16T04:39:41;2.00;;;0.60;;
8013;SDS011;4052;50.500;8.660;2022-10-16T04:42:06;0.60;;;0.60;;
8013;SDS011;4052;50.500;8.660;2022-10-16T04:44:32;1.07;;;0.60;;
8013;SDS011;4052;50.500;8.660;2022-10-16T04:46:58;0.70;;;0.70;;
8013;SDS011;4052;50.500;8.660;2022-10-16T04:49:24;0.73;;;0.70;;
8013;SDS011;4052;50.500;8.660;2022-10-16T04:51:50;0.63;;;0.63;;
8013;SDS011;4052;50.500;8.660;2022-10-16T04:54:16;0.73;;;0.60;;
8013;SDS011;4052;50.500;8.660;2022-10-16T04:56:42;2.47;;;0.80;;
8013;SDS011;4052;50.500;8.660;2022-10-16T04:59:12;0.53;;;0.53;;
8013;SDS011;4052;50.500;8.660;2022-10-16T05:01:38;0.70;;;0.70;;
8013;SDS011;4052;50.500;8.660;2022-10-16T05:04:04;0.30;;;0.30;;
8013;SDS011;4052;50.500;8.660;2022-10-16T05:06:30;0.50;;;0.50;;
8013;SDS011;4052;50.500;8.660;2022-10-16T05:08:56;0.60;;;0.60;;
8013;SDS011;4052;50.500;8.660;2022-10-16T05:11:22;0.40;;;0.40;;
8013;SDS011;4052;50.500;8.660;2022-10-16T05:13:48;0.63;;;0.50;;
8013;SDS011;4052;50.500;8.660;2022-10-16T05:16:14;0.40;;;0.40;;
8013;SDS011;4052;50.500;8.660;2022-10-16T05:18:40;0.30;;;0.30;;
8013;SDS011;4052;50.500;8.660;2022-10-16T05:21:06;0.40;;;0.40;;
8013;SDS011;4052;50.500;8.660;2022-10-16T05:23:32;0.50;;;0.40;;
8013;SDS011;4052;50.500;8.660;2022-10-16T05:25:59;0.30;;;0.30;;
8013;SDS011;4052;50.500;8.660;2022-10-16T05:28:26;0.60;;;0.50;;
8013;SDS011;4052;50.500;8.660;2022-10-16T05:30:52;0.60;;;0.60;;
8013;SDS011;4052;50.500;8.660;2022-10-16T05:33:22;0.50;;;0.50;;
8013;SDS011;4052;50.500;8.660;2022-10-16T05:35:49;0.30;;;0.30;;
8013;SDS011;4052;50.500;8.660;2022-10-16T05:38:15;0.37;;;0.37;;
8013;SDS011;4052;50.500;8.660;2022-10-16T05:40:41;0.80;;;0.50;;
8013;SDS011;4052;50.500;8.660;2022-10-16T05:43:07;0.40;;;0.40;;
8013;SDS011;4052;50.500;8.660;2022-10-16T05:45:33;0.57;;;0.57;;
8013;SDS011;4052;50.500;8.660;2022-10-16T05:48:00;1.27;;;0.70;;
8013;SDS011;4052;50.500;8.660;2022-10-16T05:50:26;1.20;;;0.80;;
8013;SDS011;4052;50.500;8.660;2022-10-16T05:52:52;0.40;;;0.40;;
8013;SDS011;4052;50.500;8.660;2022-10-16T05:55:18;0.50;;;0.50;;
8013;SDS011;4052;50.500;8.660;2022-10-16T05:57:44;0.40;;;0.40;;
8013;SDS011;4052;50.500;8.660;2022-10-16T06:00:10;0.60;;;0.60;;
8013;SDS011;4052;50.500;8.660;2022-10-16T06:02:36;0.50;;;0.50;;
8013;SDS011;4052;50.500;8.660;2022-10-16T06:05:02;0.37;;;0.37;;
8013;SDS011;4052;50.500;8.660;2022-10-16T06:07:28;0.90;;;0.60;;
8013;SDS011;4052;50.500;8.660;2022-10-16T06:09:54;0.77;;;0.77;;
8013;SDS011;4052;50.500;8.660;2022-10-16T06:12:20;0.90;;;0.80;;
8013;SDS011;4052;50.500;8.660;2022-10-16T06:14:46;0.47;;;0.47;;
8013;SDS011;4052;50.500;8.660;2022-10-16T06:17:12;1.77;;;1.20;;
8013;SDS011;4052;50.500;8.660;2022-10-16T06:19:39;2.43;;;1.73;;
8013;SDS011;4052;50.500;8.660;2022-10-16T06:22:05;2.20;;;2.00;;
8013;SDS011;4052;50.500;8.660;2022-10-16T06:24:31;1.23;;;1.10;;
8013;SDS011;4052;50.500;8.660;2022-10-16T06:26:57;2.40;;;1.63;;
8013;SDS011;4052;50.500;8.660;2022-10-16T06:29:23;1.33;;;1.17;;
8013;SDS011;4052;50.500;8.660;2022-10-16T06:31:49;1.70;;;1.27;;
8013;SDS011;4052;50.500;8.660;2022-10-16T06:34:15;1.63;;;1.03;;
8013;SDS011;4052;50.500;8.660;2022-10-16T06:36:41;1.50;;;1.40;;
8013;SDS011;4052;50.500;8.660;2022-10-16T06:39:08;2.07;;;1.40;;
8013;SDS011;4052;50.500;8.660;2022-10-16T06:41:34;1.33;;;1.30;;
8013;SDS011;4052;50.500;8.660;2022-10-16T06:44:00;1.33;;;1.23;;
8013;SDS011;4052;50.500;8.660;2022-10-16T06:46:26;1.57;;;1.13;;
8013;SDS011;4052;50.500;8.660;2022-10-16T06:48:52;1.33;;;1.20;;
8013;SDS011;4052;50.500;8.660;2022-10-16T06:51:19;1.90;;;1.43;;
8013;SDS011;4052;50.500;8.660;2022-10-16T06:53:49;2.30;;;1.73;;
8013;SDS011;4052;50.500;8.660;2022-10-16T06:58:42;1.53;;;1.27;;
8013;SDS011;4052;50.500;8.660;2022-10-16T07:01:08;1.97;;;1.50;;
8013;SDS011;4052;50.500;8.660;2022-10-16T07:03:41;1.17;;;1.03;;
8013;SDS011;4052;50.500;8.660;2022-10-16T07:06:08;3.33;;;2.53;;
8013;SDS011;4052;50.500;8.660;2022-10-16T07:08:35;1.30;;;1.13;;
8013;SDS011;4052;50.500;8.660;2022-10-16T07:11:03;2.23;;;2.03;;
8013;SDS011;4052;50.500;8.660;2022-10-16T07:13:29;2.00;;;1.87;;
8013;SDS011;4052;50.500;8.660;2022-10-16T07:15:55;2.30;;;2.10;;
8013;SDS011;4052;50.500;8.660;2022-10-16T07:18:21;1.87;;;1.57;;
8013;SDS011;4052;50.500;8.660;2022-10-16T07:20:51;1.67;;;1.57;;
8013;SDS011;4052;50.500;8.660;2022-10-16T07:23:17;2.40;;;1.70;;
8013;SDS011;4052;50.500;8.660;2022-10-16T07:25:43;2.10;;;1.90;;
8013;SDS011;4052;50.500;8.660;2022-10-16T07:28:09;1.60;;;1.50;;
8013;SDS011;4052;50.500;8.660;2022-10-16T07:30:35;1.20;;;1.20;;
8013;SDS011;4052;50.500;8.660;2022-10-16T07:33:02;1.87;;;1.50;;
8013;SDS011;4052;50.500;8.660;2022-10-16T07:35:28;1.93;;;1.10;;
8013;SDS011;4052;50.500;8.660;2022-10-16T07:37:54;1.37;;;1.10;;
8013;SDS011;4052;50.500;8.660;2022-10-16T07:40:20;1.27;;;1.17;;
8013;SDS011;4052;50.500;8.660;2022-10-16T07:42:46;1.57;;;1.30;;
8013;SDS011;4052;50.500;8.660;2022-10-16T07:45:12;1.53;;;1.43;;
8013;SDS011;4052;50.500;8.660;2022-10-16T07:47:38;1.50;;;1.00;;
8013;SDS011;4052;50.500;8.660;2022-10-16T07:50:04;0.97;;;0.97;;
8013;SDS011;4052;50.500;8.660;2022-10-16T07:52:30;0.87;;;0.87;;
8013;SDS011;4052;50.500;8.660;2022-10-16T07:54:56;1.30;;;1.03;;
8013;SDS011;4052;50.500;8.660;2022-10-16T07:57:22;0.90;;;0.83;;
8013;SDS011;4052;50.500;8.660;2022-10-16T07:59:48;0.87;;;0.87;;
8013;SDS011;4052;50.500;8.660;2022-10-16T08:02:14;1.40;;;1.30;;
8013;SDS011;4052;50.500;8.660;2022-10-16T08:04:40;1.47;;;1.00;;
8013;SDS011;4052;50.500;8.660;2022-10-16T08:07:07;2.03;;;1.50;;
8013;SDS011;4052;50.500;8.660;2022-10-16T08:09:33;1.73;;;1.40;;
8013;SDS011;4052;50.500;8.660;2022-10-16T08:11:59;2.30;;;1.23;;
8013;SDS011;4052;50.500;8.660;2022-10-16T08:14:25;1.30;;;1.13;;
8013;SDS011;4052;50.500;8.660;2022-10-16T08:16:51;1.30;;;1.20;;
8013;SDS011;4052;50.500;8.660;2022-10-16T08:19:18;1.10;;;0.80;;
8013;SDS011;4052;50.500;8.660;2022-10-16T08:21:46;1.80;;;1.27;;
8013;SDS011;4052;50.500;8.660;2022-10-16T08:24:12;1.40;;;1.03;;
8013;SDS011;4052;50.500;8.660;2022-10-16T08:26:38;1.50;;;1.00;;
8013;SDS011;4052;50.500;8.660;2022-10-16T08:29:04;2.07;;;1.50;;
8013;SDS011;4052;50.500;8.660;2022-10-16T08:31:30;2.40;;;1.47;;
8013;SDS011;4052;50.500;8.660;2022-10-16T08:33:56;1.70;;;1.40;;
8013;SDS011;4052;50.500;8.660;2022-10-16T08:36:22;3.80;;;2.73;;
8013;SDS011;4052;50.500;8.660;2022-10-16T08:38:49;2.47;;;1.80;;
8013;SDS011;4052;50.500;8.660;2022-10-16T08:44:10;2.00;;;1.37;;
8013;SDS011;4052;50.500;8.660;2022-10-16T08:49:25;2.17;;;2.00;;
8013;SDS011;4052;50.500;8.660;2022-10-16T08:51:51;1.73;;;1.43;;
8013;SDS011;4052;50.500;8.660;2022-10-16T08:54:34;4.73;;;1.10;;
8013;SDS011;4052;50.500;8.660;2022-10-16T08:57:19;0.80;;;0.77;;
8013;SDS011;4052;50.500;8.660;2022-10-16T08:59:45;0.87;;;0.87;;
8013;SDS011;4052;50.500;8.660;2022-10-16T09:02:23;1.70;;;1.20;;
8013;SDS011;4052;50.500;8.660;2022-10-16T09:10:31;3.67;;;2.63;;
8013;SDS011;4052;50.500;8.660;2022-10-16T09:23:45;0.53;;;0.53;;
8013;SDS011;4052;50.500;8.660;2022-10-16T09:26:12;0.30;;;0.30;;
8013;SDS011;4052;50.500;8.660;2022-10-16T09:28:39;0.30;;;0.30;;
8013;SDS011;4052;50.500;8.660;2022-10-16T09:31:05;0.47;;;0.47;;
8013;SDS011;4052;50.500;8.660;2022-10-16T09:33:35;0.60;;;0.60;;
8013;SDS011;4052;50.500;8.660;2022-10-16T09:36:02;0.50;;;0.50;;
8013;SDS011;4052;50.500;8.660;2022-10-16T09:38:30;3.37;;;0.57;;
8013;SDS011;4052;50.500;8.660;2022-10-16T09:40:57;0.40;;;0.40;;
8013;SDS011;4052;50.500;8.660;2022-10-16T09:43:24;0.47;;;0.47;;
8013;SDS011;4052;50.500;8.660;2022-10-16T09:45:54;0.40;;;0.40;;
8013;SDS011;4052;50.500;8.660;2022-10-16T09:48:20;0.73;;;0.40;;
8013;SDS011;4052;50.500;8.660;2022-10-16T09:50:57;0.70;;;0.70;;
8013;SDS011;4052;50.500;8.660;2022-10-16T09:53:23;1.20;;;0.63;;
8013;SDS011;4052;50.500;8.660;2022-10-16T09:55:50;0.50;;;0.50;;
8013;SDS011;4052;50.500;8.660;2022-10-16T09:58:16;2.10;;;0.70;;
8013;SDS011;4052;50.500;8.660;2022-10-16T10:00:48;0.47;;;0.47;;
8013;SDS011;4052;50.500;8.660;2022-10-16T10:03:33;0.30;;;0.30;;
8013;SDS011;4052;50.500;8.660;2022-10-16T10:06:05;0.43;;;0.40;;
8013;SDS011;4052;50.500;8.660;2022-10-16T10:08:32;0.60;;;0.50;;
8013;SDS011;4052;50.500;8.660;2022-10-16T10:10:58;0.60;;;0.60;;
8013;SDS011;4052;50.500;8.660;2022-10-16T10:13:24;1.67;;;0.57;;
8013;SDS011;4052;50.500;8.660;2022-10-16T10:15:52;0.50;;;0.50;;
8013;SDS011;4052;50.500;8.660;2022-10-16T10:18:19;0.70;;;0.70;;
8013;SDS011;4052;50.500;8.660;2022-10-16T10:20:46;0.43;;;0.43;;
8013;SDS011;4052;50.500;8.660;2022-10-16T10:23:23;0.40;;;0.40;;
8013;SDS011;4052;50.500;8.660;2022-10-16T10:26:02;0.50;;;0.43;;
8013;SDS011;4052;50.500;8.660;2022-10-16T10:28:48;0.40;;;0.40;;
8013;SDS011;4052;50.500;8.660;2022-10-16T10:34:04;0.87;;;0.47;;
8013;SDS011;4052;50.500;8.660;2022-10-16T10:41:27;0.30;;;0.30;;
8013;SDS011;4052;50.500;8.660;2022-10-16T10:49:12;0.47;;;0.40;;
8013;SDS011;4052;50.500;8.660;2022-10-16T10:56:45;0.20;;;0.20;;
8013;SDS011;4052;50.500;8.660;2022-10-16T11:01:49;0.37;;;0.37;;
8013;SDS011;4052;50.500;8.660;2022-10-16T11:06:48;0.20;;;0.20;;
8013;SDS011;4052;50.500;8.660;2022-10-16T11:09:20;0.30;;;0.30;;
8013;SDS011;4052;50.500;8.660;2022-10-16T11:11:52;0.20;;;0.20;;
8013;SDS011;4052;50.500;8.660;2022-10-16T11:14:21;0.97;;;0.30;;
8013;SDS011;4052;50.500;8.660;2022-10-16T11:17:08;0.17;;;0.17;;
8013;SDS011;4052;50.500;8.660;2022-10-16T11:19:37;0.20;;;0.20;;
8013;SDS011;4052;50.500;8.660;2022-10-16T11:22:19;0.10;;;0.10;;
8013;SDS011;4052;50.500;8.660;2022-10-16T11:27:36;0.20;;;0.20;;
8013;SDS011;4052;50.500;8.660;2022-10-16T11:30:04;0.77;;;0.30;;
8013;SDS011;4052;50.500;8.660;2022-10-16T11:32:33;0.10;;;0.10;;
8013;SDS011;4052;50.500;8.660;2022-10-16T11:35:06;0.10;;;0.10;;
8013;SDS011;4052;50.500;8.660;2022-10-16T11:37:36;0.27;;;0.10;;
8013;SDS011;4052;50.500;8.660;2022-10-16T11:40:16;0.20;;;0.20;;
8013;SDS011;4052;50.500;8.660;2022-10-16T11:42:46;0.10;;;0.10;;
8013;SDS011;4052;50.500;8.660;2022-10-16T11:45:28;0.20;;;0.20;;
8013;SDS011;4052;50.500;8.660;2022-10-16T11:50:24;0.10;;;0.10;;
8013;SDS011;4052;50.500;8.660;2022-10-16T11:52:55;0.10;;;0.10;;
8013;SDS011;4052;50.500;8.660;2022-10-16T11:55:41;0.10;;;0.10;;
8013;SDS011;4052;50.500;8.660;2022-10-16T11:58:09;0.20;;;0.20;;
8013;SDS011;4052;50.500;8.660;2022-10-16T12:03:14;0.23;;;0.20;;
8013;SDS011;4052;50.500;8.660;2022-10-16T12:08:16;1.23;;;0.30;;
8013;SDS011;4052;50.500;8.660;2022-10-16T12:10:43;0.23;;;0.23;;
8013;SDS011;4052;50.500;8.660;2022-10-16T12:13:28;0.30;;;0.30;;
8013;SDS011;4052;50.500;8.660;2022-10-16T12:16:19;0.10;;;0.10;;
8013;SDS011;4052;50.500;8.660;2022-10-16T12:18:46;0.50;;;0.50;;
8013;SDS011;4052;50.500;8.660;2022-10-16T12:21:13;0.50;;;0.50;;
8013;SDS011;4052;50.500;8.660;2022-10-16T12:23:54;0.30;;;0.30;;
8013;SDS011;4052;50.500;8.660;2022-10-16T12:26:27;0.27;;;0.27;;
8013;SDS011;4052;50.500;8.660;2022-10-16T12:28:54;0.73;;;0.40;;
8013;SDS011;4052;50.500;8.660;2022-10-16T12:31:20;0.73;;;0.30;;
8013;SDS011;4052;50.500;8.660;2022-10-16T12:33:58;0.30;;;0.30;;
8013;SDS011;4052;50.500;8.660;2022-10-16T12:36:32;1.50;;;1.40;;
8013;SDS011;4052;50.500;8.660;2022-10-16T12:38:58;2.17;;;1.90;;
8013;SDS011;4052;50.500;8.660;2022-10-16T12:43:51;0.70;;;0.70;;
8013;SDS011;4052;50.500;8.660;2022-10-16T12:48:44;0.53;;;0.53;;
8013;SDS011;4052;50.500;8.660;2022-10-16T12:51:25;0.10;;;0.10;;
8013;SDS011;4052;50.500;8.660;2022-10-16T13:01:54;0.10;;;0.10;;
8013;SDS011;4052;50.500;8.660;2022-10-16T13:04:30;0.60;;;0.20;;
8013;SDS011;4052;50.500;8.660;2022-10-16T13:22:33;0.10;;;0.10;;
8013;SDS011;4052;50.500;8.660;2022-10-16T13:30:09;0.27;;;0.20;;
8013;SDS011;4052;50.500;8.660;2022-10-16T13:32:36;0.10;;;0.10;;
8013;SDS011;4052;50.500;8.660;2022-10-16T13:35:02;0.10;;;0.10;;
8013;SDS011;4052;50.500;8.660;2022-10-16T13:37:29;0.40;;;0.40;;
8013;SDS011;4052;50.500;8.660;2022-10-16T13:42:39;1.20;;;0.80;;
8013;SDS011;4052;50.500;8.660;2022-10-16T13:45:16;1.47;;;0.97;;
8013;SDS011;4052;50.500;8.660;2022-10-16T13:47:43;1.10;;;1.10;;
8013;SDS011;4052;50.500;8.660;2022-10-16T13:50:11;1.90;;;1.80;;
8013;SDS011;4052;50.500;8.660;2022-10-16T13:52:37;1.20;;;1.20;;
8013;SDS011;4052;50.500;8.660;2022-10-16T13:55:09;0.93;;;0.93;;
8013;SDS011;4052;50.500;8.660;2022-10-16T13:57:36;0.80;;;0.70;;
8013;SDS011;4052;50.500;8.660;2022-10-16T14:00:02;0.83;;;0.83;;
8013;SDS011;4052;50.500;8.660;2022-10-16T14:02:32;0.73;;;0.73;;
8013;SDS011;4052;50.500;8.660;2022-10-16T14:05:00;0.50;;;0.50;;
8013;SDS011;4052;50.500;8.660;2022-10-16T14:07:31;1.83;;;0.87;;
8013;SDS011;4052;50.500;8.660;2022-10-16T14:10:00;0.83;;;0.70;;
8013;SDS011;4052;50.500;8.660;2022-10-16T14:12:26;0.90;;;0.90;;
8013;SDS011;4052;50.500;8.660;2022-10-16T14:14:52;0.67;;;0.67;;
8013;SDS011;4052;50.500;8.660;2022-10-16T14:17:21;1.03;;;1.03;;
8013;SDS011;4052;50.500;8.660;2022-10-16T14:19:48;0.70;;;0.70;;
8013;SDS011;4052;50.500;8.660;2022-10-16T14:22:34;0.93;;;0.93;;
8013;SDS011;4052;50.500;8.660;2022-10-16T14:25:00;1.10;;;1.00;;
8013;SDS011;4052;50.500;8.660;2022-10-16T14:27:28;0.80;;;0.80;;
8013;SDS011;4052;50.500;8.660;2022-10-16T14:32:33;0.50;;;0.50;;
8013;SDS011;4052;50.500;8.660;2022-10-16T14:34:59;0.87;;;0.87;;
8013;SDS011;4052;50.500;8.660;2022-10-16T14:37:26;1.37;;;1.27;;
8013;SDS011;4052;50.500;8.660;2022-10-16T14:39:53;1.40;;;1.30;;
8013;SDS011;4052;50.500;8.660;2022-10-16T14:42:20;1.43;;;1.40;;
8013;SDS011;4052;50.500;8.660;2022-10-16T14:44:49;1.00;;;0.90;;
8013;SDS011;4052;50.500;8.660;2022-10-16T14:47:18;1.40;;;1.10;;
8013;SDS011;4052;50.500;8.660;2022-10-16T14:49:49;1.73;;;1.60;;
8013;SDS011;4052;50.500;8.660;2022-10-16T14:52:15;1.07;;;1.07;;
8013;SDS011;4052;50.500;8.660;2022-10-16T14:54:41;1.30;;;1.20;;
8013;SDS011;4052;50.500;8.660;2022-10-16T14:57:15;1.30;;;1.10;;
8013;SDS011;4052;50.500;8.660;2022-10-16T14:59:42;1.00;;;1.00;;
8013;SDS011;4052;50.500;8.660;2022-10-16T15:02:20;1.07;;;1.07;;
8013;SDS011;4052;50.500;8.660;2022-10-16T15:04:48;1.00;;;1.00;;
8013;SDS011;4052;50.500;8.660;2022-10-16T15:07:14;2.73;;;2.53;;
8013;SDS011;4052;50.500;8.660;2022-10-16T15:09:40;2.00;;;1.80;;
8013;SDS011;4052;50.500;8.660;2022-10-16T15:12:06;2.03;;;1.90;;
8013;SDS011;4052;50.500;8.660;2022-10-16T15:14:32;1.40;;;1.30;;
8013;SDS011;4052;50.500;8.660;2022-10-16T15:16:58;1.40;;;1.30;;
8013;SDS011;4052;50.500;8.660;2022-10-16T15:19:24;2.73;;;1.50;;
8013;SDS011;4052;50.500;8.660;2022-10-16T15:21:50;1.00;;;1.00;;
8013;SDS011;4052;50.500;8.660;2022-10-16T15:24:17;1.50;;;1.40;;
8013;SDS011;4052;50.500;8.660;2022-10-16T15:26:43;3.60;;;1.90;;
8013;SDS011;4052;50.500;8.660;2022-10-16T15:29:11;1.77;;;1.67;;
8013;SDS011;4052;50.500;8.660;2022-10-16T15:31:37;1.30;;;1.20;;
8013;SDS011;4052;50.500;8.660;2022-10-16T15:34:03;1.70;;;0.83;;
8013;SDS011;4052;50.500;8.660;2022-10-16T15:36:34;1.37;;;0.80;;
8013;SDS011;4052;50.500;8.660;2022-10-16T15:39:05;1.00;;;1.00;;
8013;SDS011;4052;50.500;8.660;2022-10-16T15:41:31;1.00;;;0.83;;
8013;SDS011;4052;50.500;8.660;2022-10-16T15:43:57;1.10;;;1.00;;
8013;SDS011;4052;50.500;8.660;2022-10-16T15:46:23;0.90;;;0.90;;
8013;SDS011;4052;50.500;8.660;2022-10-16T15:48:50;1.00;;;0.90;;
8013;SDS011;4052;50.500;8.660;2022-10-16T15:51:17;0.80;;;0.77;;
8013;SDS011;4052;50.500;8.660;2022-10-16T15:53:43;1.03;;;1.00;;
8013;SDS011;4052;50.500;8.660;2022-10-16T15:56:11;1.00;;;1.00;;
8013;SDS011;4052;50.500;8.660;2022-10-16T15:58:37;0.90;;;0.90;;
8013;SDS011;4052;50.500;8.660;2022-10-16T16:01:03;1.40;;;1.30;;
8013;SDS011;4052;50.500;8.660;2022-10-16T16:03:30;1.17;;;1.07;;
8013;SDS011;4052;50.500;8.660;2022-10-16T16:05:56;0.70;;;0.70;;
8013;SDS011;4052;50.500;8.660;2022-10-16T16:08:22;0.90;;;0.80;;
8013;SDS011;4052;50.500;8.660;2022-10-16T16:10:58;1.47;;;1.10;;
8013;SDS011;4052;50.500;8.660;2022-10-16T16:13:24;1.23;;;0.93;;
8013;SDS011;4052;50.500;8.660;2022-10-16T16:15:50;1.00;;;0.90;;
8013;SDS011;4052;50.500;8.660;2022-10-16T16:18:16;0.90;;;0.80;;
8013;SDS011;4052;50.500;8.660;2022-10-16T16:20:42;1.20;;;0.83;;
8013;SDS011;4052;50.500;8.660;2022-10-16T16:23:08;3.80;;;1.07;;
8013;SDS011;4052;50.500;8.660;2022-10-16T16:25:34;1.63;;;1.07;;
8013;SDS011;4052;50.500;8.660;2022-10-16T16:27:59;1.50;;;1.40;;
8013;SDS011;4052;50.500;8.660;2022-10-16T16:30:25;1.77;;;1.40;;
8013;SDS011;4052;50.500;8.660;2022-10-16T16:32:51;0.93;;;0.93;;
8013;SDS011;4052;50.500;8.660;2022-10-16T16:35:17;0.70;;;0.70;;
8013;SDS011;4052;50.500;8.660;2022-10-16T16:37:43;1.00;;;0.90;;
8013;SDS011;4052;50.500;8.660;2022-10-16T16:40:09;0.87;;;0.87;;
8013;SDS011;4052;50.500;8.660;2022-10-16T16:42:35;1.00;;;0.83;;
8013;SDS011;4052;50.500;8.660;2022-10-16T16:45:01;0.93;;;0.93;;
8013;SDS011;4052;50.500;8.660;2022-10-16T16:47:27;1.00;;;0.90;;
8013;SDS011;4052;50.500;8.660;2022-10-16T16:49:53;1.43;;;1.33;;
8013;SDS011;4052;50.500;8.660;2022-10-16T16:52:19;1.63;;;1.27;;
8013;SDS011;4052;50.500;8.660;2022-10-16T16:54:47;1.13;;;0.93;;
8013;SDS011;4052;50.500;8.660;2022-10-16T16:57:16;5.37;;;1.47;;
8013;SDS011;4052;50.500;8.660;2022-10-16T16:59:42;1.23;;;1.17;;
8013;SDS011;4052;50.500;8.660;2022-10-16T17:02:08;1.80;;;1.33;;
8013;SDS011;4052;50.500;8.660;2022-10-16T17:04:34;1.10;;;1.10;;
8013;SDS011;4052;50.500;8.660;2022-10-16T17:07:00;1.23;;;1.13;;
8013;SDS011;4052;50.500;8.660;2022-10-16T17:09:26;1.17;;;1.07;;
8013;SDS011;4052;50.500;8.660;2022-10-16T17:11:52;1.53;;;1.33;;
8013;SDS011;4052;50.500;8.660;2022-10-16T17:14:18;1.30;;;1.20;;